sensor_id;sensor_type;location;lat;lon;timestamp;temperature;humidity
48454;DHT22;34261;55.678;12.464;2023-04-01T00:00:32;5.50;99.90
48454;DHT22;34261;55.678;12.464;2023-04-01T00:03:01;5.40;99.90
48454;DHT22;34261;55.678;12.464;2023-04-01T00:05:36;5.50;99.90
48454;DHT22;34261;55.678;12.464;2023-04-01T00:08:03;5.50;99.90
48454;DHT22;34261;55.678;12.464;2023-04-01T00:10:31;5.50;99.90
48454;DHT22;34261;55.678;12.464;2023-04-01T00:12:58;5.40;99.90
48454;DHT22;34261;55.678;12.464;2023-04-01T00:15:23;5.40;99.90
48454;DHT22;34261;55.678;12.464;2023-04-01T00:17:49;5.40;99.90
48454;DHT22;34261;55.678;12.464;2023-04-01T00:23:09;5.30;99.90
48454;DHT22;34261;55.678;12.464;2023-04-01T00:25:37;5.20;99.90
48454;DHT22;34261;55.678;12.464;2023-04-01T00:28:03;5.20;99.90
48454;DHT22;34261;55.678;12.464;2023-04-01T00:30:38;5.30;99.90
48454;DHT22;34261;55.678;12.464;2023-04-01T00:33:03;5.30;99.90
48454;DHT22;34261;55.678;12.464;2023-04-01T00:35:30;5.20;99.90
48454;DHT22;34261;55.678;12.464;2023-04-01T00:38:03;5.20;99.90
48454;DHT22;34261;55.678;12.464;2023-04-01T00:40:38;5.20;99.90
48454;DHT22;34261;55.678;12.464;2023-04-01T00:43:12;5.20;99.90
48454;DHT22;34261;55.678;12.464;2023-04-01T00:45:42;5.10;99.90
48454;DHT22;34261;55.678;12.464;2023-04-01T00:48:18;5.10;99.90
48454;DHT22;34261;55.678;12.464;2023-04-01T00:50:50;5.00;99.90
48454;DHT22;34261;55.678;12.464;2023-04-01T00:53:16;5.00;99.90
48454;DHT22;34261;55.678;12.464;2023-04-01T00:55:44;4.90;99.90
48454;DHT22;34261;55.678;12.464;2023-04-01T00:58:13;5.00;99.90
48454;DHT22;34261;55.678;12.464;2023-04-01T01:00:39;5.10;99.90
48454;DHT22;34261;55.678;12.464;2023-04-01T01:03:06;5.10;99.90
48454;DHT22;34261;55.678;12.464;2023-04-01T01:05:38;5.10;99.90
48454;DHT22;34261;55.678;12.464;2023-04-01T01:08:18;5.10;99.90
48454;DHT22;34261;55.678;12.464;2023-04-01T01:10:48;5.10;99.90
48454;DHT22;34261;55.678;12.464;2023-04-01T01:13:17;5.10;99.90
48454;DHT22;34261;55.678;12.464;2023-04-01T01:15:57;5.00;99.90
48454;DHT22;34261;55.678;12.464;2023-04-01T01:19:09;5.00;99.90
48454;DHT22;34261;55.678;12.464;2023-04-01T01:25:01;5.00;99.90
48454;DHT22;34261;55.678;12.464;2023-04-01T01:37:38;5.00;99.90
48454;DHT22;34261;55.678;12.464;2023-04-01T01:40:09;5.10;99.90
48454;DHT22;34261;55.678;12.464;2023-04-01T01:42:40;5.20;99.90
48454;DHT22;34261;55.678;12.464;2023-04-01T01:45:18;5.10;99.90
48454;DHT22;34261;55.678;12.464;2023-04-01T01:47:45;5.00;99.90
48454;DHT22;34261;55.678;12.464;2023-04-01T01:50:11;5.00;99.90
48454;DHT22;34261;55.678;12.464;2023-04-01T01:52:46;5.00;99.90
48454;DHT22;34261;55.678;12.464;2023-04-01T01:55:31;5.10;99.90
48454;DHT22;34261;55.678;12.464;2023-04-01T01:58:04;5.10;99.90
48454;DHT22;34261;55.678;12.464;2023-04-01T02:00:51;5.00;99.90
48454;DHT22;34261;55.678;12.464;2023-04-01T02:03:19;5.00;99.90
48454;DHT22;34261;55.678;12.464;2023-04-01T02:05:45;5.00;99.90
48454;DHT22;34261;55.678;12.464;2023-04-01T02:08:21;5.00;99.90
48454;DHT22;34261;55.678;12.464;2023-04-01T02:10:51;4.90;99.90
48454;DHT22;34261;55.678;12.464;2023-04-01T02:13:23;4.90;99.90
48454;DHT22;34261;55.678;12.464;2023-04-01T02:15:53;4.90;99.90
48454;DHT22;34261;55.678;12.464;2023-04-01T02:18:20;4.90;99.90
48454;DHT22;34261;55.678;12.464;2023-04-01T02:20:53;4.90;99.90
48454;DHT22;34261;55.678;12.464;2023-04-01T02:23:20;4.80;99.90
48454;DHT22;34261;55.678;12.464;2023-04-01T02:25:46;4.90;99.90
48454;DHT22;34261;55.678;12.464;2023-04-01T02:28:12;4.90;99.90
48454;DHT22;34261;55.678;12.464;2023-04-01T02:30:38;5.00;99.90
48454;DHT22;34261;55.678;12.464;2023-04-01T02:33:05;4.90;99.90
48454;DHT22;34261;55.678;12.464;2023-04-01T02:35:32;4.90;99.90
48454;DHT22;34261;55.678;12.464;2023-04-01T02:37:58;5.00;99.90
48454;DHT22;34261;55.678;12.464;2023-04-01T02:40:24;4.90;99.90
48454;DHT22;34261;55.678;12.464;2023-04-01T02:42:50;4.90;99.90
48454;DHT22;34261;55.678;12.464;2023-04-01T02:45:16;4.80;99.90
48454;DHT22;34261;55.678;12.464;2023-04-01T02:47:41;4.80;99.90
48454;DHT22;34261;55.678;12.464;2023-04-01T02:50:08;4.90;99.90
48454;DHT22;34261;55.678;12.464;2023-04-01T02:52:39;4.90;99.90
48454;DHT22;34261;55.678;12.464;2023-04-01T02:55:09;4.80;99.90
48454;DHT22;34261;55.678;12.464;2023-04-01T02:57:37;4.80;99.90
48454;DHT22;34261;55.678;12.464;2023-04-01T03:00:03;4.90;99.90
48454;DHT22;34261;55.678;12.464;2023-04-01T03:02:32;4.90;99.90
48454;DHT22;34261;55.678;12.464;2023-04-01T03:04:57;4.80;99.90
48454;DHT22;34261;55.678;12.464;2023-04-01T03:07:23;4.90;99.90
48454;DHT22;34261;55.678;12.464;2023-04-01T03:09:48;4.80;99.90
48454;DHT22;34261;55.678;12.464;2023-04-01T03:12:14;4.80;99.90
48454;DHT22;34261;55.678;12.464;2023-04-01T03:14:40;4.80;99.90
48454;DHT22;34261;55.678;12.464;2023-04-01T03:17:05;4.90;99.90
48454;DHT22;34261;55.678;12.464;2023-04-01T03:19:30;4.90;99.90
48454;DHT22;34261;55.678;12.464;2023-04-01T03:21:57;5.00;99.90
48454;DHT22;34261;55.678;12.464;2023-04-01T03:24:23;5.00;99.90
48454;DHT22;34261;55.678;12.464;2023-04-01T03:26:48;5.00;99.90
48454;DHT22;34261;55.678;12.464;2023-04-01T03:29:14;5.00;99.90
48454;DHT22;34261;55.678;12.464;2023-04-01T03:31:43;4.90;99.90
48454;DHT22;34261;55.678;12.464;2023-04-01T03:34:11;4.90;99.90
48454;DHT22;34261;55.678;12.464;2023-04-01T03:36:36;4.90;99.90
48454;DHT22;34261;55.678;12.464;2023-04-01T03:39:03;4.80;99.90
48454;DHT22;34261;55.678;12.464;2023-04-01T03:41:29;4.80;99.90
48454;DHT22;34261;55.678;12.464;2023-04-01T03:44:06;4.80;99.90
48454;DHT22;34261;55.678;12.464;2023-04-01T03:46:31;4.80;99.90
48454;DHT22;34261;55.678;12.464;2023-04-01T03:48:57;4.80;99.90
48454;DHT22;34261;55.678;12.464;2023-04-01T03:51:22;4.80;99.90
48454;DHT22;34261;55.678;12.464;2023-04-01T03:54:11;4.80;99.90
48454;DHT22;34261;55.678;12.464;2023-04-01T03:56:37;4.80;99.90
48454;DHT22;34261;55.678;12.464;2023-04-01T03:59:08;4.80;99.90
48454;DHT22;34261;55.678;12.464;2023-04-01T04:01:50;4.80;99.90
48454;DHT22;34261;55.678;12.464;2023-04-01T04:04:15;4.80;99.90
48454;DHT22;34261;55.678;12.464;2023-04-01T04:06:41;4.70;99.90
48454;DHT22;34261;55.678;12.464;2023-04-01T04:09:12;4.80;99.90
48454;DHT22;34261;55.678;12.464;2023-04-01T04:11:38;4.80;99.90
48454;DHT22;34261;55.678;12.464;2023-04-01T04:14:03;4.80;99.90
48454;DHT22;34261;55.678;12.464;2023-04-01T04:16:29;4.80;99.90
48454;DHT22;34261;55.678;12.464;2023-04-01T04:18:54;4.80;99.90
48454;DHT22;34261;55.678;12.464;2023-04-01T04:21:20;4.80;99.90
48454;DHT22;34261;55.678;12.464;2023-04-01T04:23:48;4.90;99.90
48454;DHT22;34261;55.678;12.464;2023-04-01T04:26:14;4.80;99.90
48454;DHT22;34261;55.678;12.464;2023-04-01T04:28:40;4.70;99.90
48454;DHT22;34261;55.678;12.464;2023-04-01T04:31:06;4.70;99.90
48454;DHT22;34261;55.678;12.464;2023-04-01T04:33:32;4.70;99.90
48454;DHT22;34261;55.678;12.464;2023-04-01T04:35:58;4.70;99.90
48454;DHT22;34261;55.678;12.464;2023-04-01T04:38:24;4.70;99.90
48454;DHT22;34261;55.678;12.464;2023-04-01T04:40:49;4.70;99.90
48454;DHT22;34261;55.678;12.464;2023-04-01T04:43:16;4.70;99.90
48454;DHT22;34261;55.678;12.464;2023-04-01T04:45:41;4.70;99.90
48454;DHT22;34261;55.678;12.464;2023-04-01T04:48:08;4.70;99.90
48454;DHT22;34261;55.678;12.464;2023-04-01T04:50:33;4.60;99.90
48454;DHT22;34261;55.678;12.464;2023-04-01T04:52:59;4.60;99.90
48454;DHT22;34261;55.678;12.464;2023-04-01T04:55:24;4.70;99.90
48454;DHT22;34261;55.678;12.464;2023-04-01T04:57:50;4.70;99.90
48454;DHT22;34261;55.678;12.464;2023-04-01T05:00:15;4.70;99.90
48454;DHT22;34261;55.678;12.464;2023-04-01T05:02:41;4.60;99.90
48454;DHT22;34261;55.678;12.464;2023-04-01T05:05:07;4.50;99.90
48454;DHT22;34261;55.678;12.464;2023-04-01T05:07:38;4.50;99.90
48454;DHT22;34261;55.678;12.464;2023-04-01T05:10:24;4.60;99.90
48454;DHT22;34261;55.678;12.464;2023-04-01T05:12:49;4.60;99.90
48454;DHT22;34261;55.678;12.464;2023-04-01T05:15:24;4.50;99.90
48454;DHT22;34261;55.678;12.464;2023-04-01T05:17:50;4.50;99.90
48454;DHT22;34261;55.678;12.464;2023-04-01T05:20:16;4.60;99.90
48454;DHT22;34261;55.678;12.464;2023-04-01T05:22:42;4.60;99.90
48454;DHT22;34261;55.678;12.464;2023-04-01T05:25:11;4.60;99.90
48454;DHT22;34261;55.678;12.464;2023-04-01T05:27:36;4.60;99.90
48454;DHT22;34261;55.678;12.464;2023-04-01T05:30:08;4.60;99.90
48454;DHT22;34261;55.678;12.464;2023-04-01T05:32:34;4.60;99.90
48454;DHT22;34261;55.678;12.464;2023-04-01T05:35:01;4.60;99.90
48454;DHT22;34261;55.678;12.464;2023-04-01T05:37:33;4.60;99.90
48454;DHT22;34261;55.678;12.464;2023-04-01T05:40:02;4.60;99.90
48454;DHT22;34261;55.678;12.464;2023-04-01T05:42:29;4.60;99.90
48454;DHT22;34261;55.678;12.464;2023-04-01T05:44:55;4.60;99.90
48454;DHT22;34261;55.678;12.464;2023-04-01T05:47:22;4.60;99.90
48454;DHT22;34261;55.678;12.464;2023-04-01T05:49:50;4.70;99.90
48454;DHT22;34261;55.678;12.464;2023-04-01T05:52:15;4.70;99.90
48454;DHT22;34261;55.678;12.464;2023-04-01T05:54:41;4.70;99.90
48454;DHT22;34261;55.678;12.464;2023-04-01T05:57:12;4.70;99.90
48454;DHT22;34261;55.678;12.464;2023-04-01T05:59:37;4.70;99.90
48454;DHT22;34261;55.678;12.464;2023-04-01T06:02:05;4.70;99.90
48454;DHT22;34261;55.678;12.464;2023-04-01T06:04:32;4.70;99.90
48454;DHT22;34261;55.678;12.464;2023-04-01T06:07:01;4.70;99.90
48454;DHT22;34261;55.678;12.464;2023-04-01T06:09:30;4.70;99.90
48454;DHT22;34261;55.678;12.464;2023-04-01T06:24:49;4.80;99.90
48454;DHT22;34261;55.678;12.464;2023-04-01T06:27:30;4.80;99.90
48454;DHT22;34261;55.678;12.464;2023-04-01T06:30:02;4.90;99.90
48454;DHT22;34261;55.678;12.464;2023-04-01T06:40:27;5.00;99.90
48454;DHT22;34261;55.678;12.464;2023-04-01T06:43:06;4.90;99.90
48454;DHT22;34261;55.678;12.464;2023-04-01T06:45:40;4.80;99.90
48454;DHT22;34261;55.678;12.464;2023-04-01T06:50:42;4.70;99.90
48454;DHT22;34261;55.678;12.464;2023-04-01T06:53:12;4.70;99.90
48454;DHT22;34261;55.678;12.464;2023-04-01T06:58:22;4.90;99.90
48454;DHT22;34261;55.678;12.464;2023-04-01T07:00:49;4.90;99.90
48454;DHT22;34261;55.678;12.464;2023-04-01T07:03:35;5.00;99.90
48454;DHT22;34261;55.678;12.464;2023-04-01T07:06:14;5.10;99.90
48454;DHT22;34261;55.678;12.464;2023-04-01T07:08:42;5.10;99.90
48454;DHT22;34261;55.678;12.464;2023-04-01T07:11:09;5.10;99.90
48454;DHT22;34261;55.678;12.464;2023-04-01T07:13:48;5.20;99.90
48454;DHT22;34261;55.678;12.464;2023-04-01T07:16:30;5.20;99.90
48454;DHT22;34261;55.678;12.464;2023-04-01T07:21:34;5.30;99.90
48454;DHT22;34261;55.678;12.464;2023-04-01T07:24:05;5.30;99.90
48454;DHT22;34261;55.678;12.464;2023-04-01T07:26:40;5.40;99.90
48454;DHT22;34261;55.678;12.464;2023-04-01T07:29:27;5.50;99.90
48454;DHT22;34261;55.678;12.464;2023-04-01T07:34:51;5.50;99.90
48454;DHT22;34261;55.678;12.464;2023-04-01T07:42:34;5.50;99.90
48454;DHT22;34261;55.678;12.464;2023-04-01T07:45:12;5.50;99.90
48454;DHT22;34261;55.678;12.464;2023-04-01T07:47:53;5.40;99.90
48454;DHT22;34261;55.678;12.464;2023-04-01T07:55:39;5.70;99.90
48454;DHT22;34261;55.678;12.464;2023-04-01T08:01:02;5.80;99.90
48454;DHT22;34261;55.678;12.464;2023-04-01T08:17:31;5.90;99.90
48454;DHT22;34261;55.678;12.464;2023-04-01T08:22:48;6.30;99.90
48454;DHT22;34261;55.678;12.464;2023-04-01T08:25:22;6.30;99.90
48454;DHT22;34261;55.678;12.464;2023-04-01T08:28:11;6.30;99.90
48454;DHT22;34261;55.678;12.464;2023-04-01T08:34:05;6.60;99.90
48454;DHT22;34261;55.678;12.464;2023-04-01T08:36:43;6.60;98.60
48454;DHT22;34261;55.678;12.464;2023-04-01T08:49:44;6.70;98.60
48454;DHT22;34261;55.678;12.464;2023-04-01T09:21:03;7.10;96.60
48454;DHT22;34261;55.678;12.464;2023-04-01T09:29:24;7.60;95.00
48454;DHT22;34261;55.678;12.464;2023-04-01T09:31:57;7.50;95.40
48454;DHT22;34261;55.678;12.464;2023-04-01T09:34:26;7.70;94.60
48454;DHT22;34261;55.678;12.464;2023-04-01T09:50:42;8.50;93.40
48454;DHT22;34261;55.678;12.464;2023-04-01T10:01:10;9.10;93.00
48454;DHT22;34261;55.678;12.464;2023-04-01T10:08:51;9.50;92.40
48454;DHT22;34261;55.678;12.464;2023-04-01T10:32:32;9.90;90.00
48454;DHT22;34261;55.678;12.464;2023-04-01T10:37:50;10.00;90.10
48454;DHT22;34261;55.678;12.464;2023-04-01T10:55:36;11.40;86.50
48454;DHT22;34261;55.678;12.464;2023-04-01T10:58:20;11.50;86.00
48454;DHT22;34261;55.678;12.464;2023-04-01T11:01:03;11.60;86.30
48454;DHT22;34261;55.678;12.464;2023-04-01T11:03:46;11.50;85.00
48454;DHT22;34261;55.678;12.464;2023-04-01T11:06:30;11.60;85.90
48454;DHT22;34261;55.678;12.464;2023-04-01T11:11:33;11.70;84.10
48454;DHT22;34261;55.678;12.464;2023-04-01T11:14:18;11.70;85.50
48454;DHT22;34261;55.678;12.464;2023-04-01T11:16:58;12.10;85.60
48454;DHT22;34261;55.678;12.464;2023-04-01T11:19:41;12.50;85.00
48454;DHT22;34261;55.678;12.464;2023-04-01T11:22:34;12.60;83.00
48454;DHT22;34261;55.678;12.464;2023-04-01T11:25:20;12.40;82.30
48454;DHT22;34261;55.678;12.464;2023-04-01T11:27:51;12.20;83.70
48454;DHT22;34261;55.678;12.464;2023-04-01T11:38:44;12.50;81.10
48454;DHT22;34261;55.678;12.464;2023-04-01T11:43:32;12.40;80.20
48454;DHT22;34261;55.678;12.464;2023-04-01T11:46:15;12.50;81.70
48454;DHT22;34261;55.678;12.464;2023-04-01T11:48:58;12.70;78.90
48454;DHT22;34261;55.678;12.464;2023-04-01T11:51:35;12.80;78.70
48454;DHT22;34261;55.678;12.464;2023-04-01T11:54:12;13.00;79.70
48454;DHT22;34261;55.678;12.464;2023-04-01T12:01:43;13.60;79.50
48454;DHT22;34261;55.678;12.464;2023-04-01T12:04:17;13.50;76.30
48454;DHT22;34261;55.678;12.464;2023-04-01T12:06:49;13.80;79.20
48454;DHT22;34261;55.678;12.464;2023-04-01T12:09:37;13.90;78.40
48454;DHT22;34261;55.678;12.464;2023-04-01T12:12:16;14.20;78.60
48454;DHT22;34261;55.678;12.464;2023-04-01T12:23:06;14.80;78.40
48454;DHT22;34261;55.678;12.464;2023-04-01T12:28:21;14.80;75.70
48454;DHT22;34261;55.678;12.464;2023-04-01T12:31:23;14.60;73.80
48454;DHT22;34261;55.678;12.464;2023-04-01T12:33:48;14.70;75.00
48454;DHT22;34261;55.678;12.464;2023-04-01T12:38:56;14.60;76.70
48454;DHT22;34261;55.678;12.464;2023-04-01T12:44:15;14.80;75.60
48454;DHT22;34261;55.678;12.464;2023-04-01T12:49:37;14.80;74.90
48454;DHT22;34261;55.678;12.464;2023-04-01T12:52:14;15.00;76.60
48454;DHT22;34261;55.678;12.464;2023-04-01T12:59:44;15.70;71.90
48454;DHT22;34261;55.678;12.464;2023-04-01T13:02:25;15.80;72.50
48454;DHT22;34261;55.678;12.464;2023-04-01T13:10:13;16.00;72.80
48454;DHT22;34261;55.678;12.464;2023-04-01T13:12:57;16.10;71.40
48454;DHT22;34261;55.678;12.464;2023-04-01T13:15:40;16.20;72.50
48454;DHT22;34261;55.678;12.464;2023-04-01T13:26:11;16.10;70.60
48454;DHT22;34261;55.678;12.464;2023-04-01T13:28:39;16.10;69.40
48454;DHT22;34261;55.678;12.464;2023-04-01T13:39:42;16.50;69.40
48454;DHT22;34261;55.678;12.464;2023-04-01T13:42:16;16.40;69.40
48454;DHT22;34261;55.678;12.464;2023-04-01T13:44:54;16.60;72.60
48454;DHT22;34261;55.678;12.464;2023-04-01T13:50:15;17.00;69.70
48454;DHT22;34261;55.678;12.464;2023-04-01T13:52:48;17.00;67.80
48454;DHT22;34261;55.678;12.464;2023-04-01T13:58:04;17.10;68.10
48454;DHT22;34261;55.678;12.464;2023-04-01T14:00:44;17.20;67.60
48454;DHT22;34261;55.678;12.464;2023-04-01T14:03:27;17.10;67.10
48454;DHT22;34261;55.678;12.464;2023-04-01T14:06:09;17.10;66.90
48454;DHT22;34261;55.678;12.464;2023-04-01T14:08:44;17.30;67.60
48454;DHT22;34261;55.678;12.464;2023-04-01T14:24:52;17.50;66.90
48454;DHT22;34261;55.678;12.464;2023-04-01T14:27:35;17.60;67.20
48454;DHT22;34261;55.678;12.464;2023-04-01T14:37:41;17.40;66.90
48454;DHT22;34261;55.678;12.464;2023-04-01T14:45:45;17.30;66.60
48454;DHT22;34261;55.678;12.464;2023-04-01T14:48:21;17.30;65.50
48454;DHT22;34261;55.678;12.464;2023-04-01T14:50:52;17.50;66.10
48454;DHT22;34261;55.678;12.464;2023-04-01T14:55:51;17.50;64.50
48454;DHT22;34261;55.678;12.464;2023-04-01T14:58:18;17.50;65.30
48454;DHT22;34261;55.678;12.464;2023-04-01T15:03:26;17.70;65.70
48454;DHT22;34261;55.678;12.464;2023-04-01T15:08:44;17.60;65.40
48454;DHT22;34261;55.678;12.464;2023-04-01T15:13:54;17.20;66.60
48454;DHT22;34261;55.678;12.464;2023-04-01T15:16:31;17.20;65.20
48454;DHT22;34261;55.678;12.464;2023-04-01T15:19:14;17.10;65.40
48454;DHT22;34261;55.678;12.464;2023-04-01T15:27:12;17.00;65.70
48454;DHT22;34261;55.678;12.464;2023-04-01T15:35:18;16.70;65.90
48454;DHT22;34261;55.678;12.464;2023-04-01T15:38:02;16.70;65.60
48454;DHT22;34261;55.678;12.464;2023-04-01T15:45:31;16.50;67.70
48454;DHT22;34261;55.678;12.464;2023-04-01T15:50:52;16.20;65.30
48454;DHT22;34261;55.678;12.464;2023-04-01T15:53:24;16.00;64.70
48454;DHT22;34261;55.678;12.464;2023-04-01T15:58:41;15.80;65.30
48454;DHT22;34261;55.678;12.464;2023-04-01T16:01:15;15.70;66.40
48454;DHT22;34261;55.678;12.464;2023-04-01T16:09:07;15.20;66.20
48454;DHT22;34261;55.678;12.464;2023-04-01T16:11:53;15.10;69.30
48454;DHT22;34261;55.678;12.464;2023-04-01T16:19:49;14.30;68.30
48454;DHT22;34261;55.678;12.464;2023-04-01T16:22:18;14.10;67.80
48454;DHT22;34261;55.678;12.464;2023-04-01T16:27:24;13.80;68.80
48454;DHT22;34261;55.678;12.464;2023-04-01T16:29:53;13.60;68.30
48454;DHT22;34261;55.678;12.464;2023-04-01T16:37:40;13.00;68.40
48454;DHT22;34261;55.678;12.464;2023-04-01T16:40:13;13.00;68.80
48454;DHT22;34261;55.678;12.464;2023-04-01T16:48:17;13.10;68.10
48454;DHT22;34261;55.678;12.464;2023-04-01T16:58:21;12.40;69.70
48454;DHT22;34261;55.678;12.464;2023-04-01T17:00:49;12.10;70.10
48454;DHT22;34261;55.678;12.464;2023-04-01T17:03:37;11.90;71.40
48454;DHT22;34261;55.678;12.464;2023-04-01T17:08:30;11.30;72.10
48454;DHT22;34261;55.678;12.464;2023-04-01T17:11:12;11.20;73.20
48454;DHT22;34261;55.678;12.464;2023-04-01T17:18:45;10.60;74.10
48454;DHT22;34261;55.678;12.464;2023-04-01T17:21:45;10.50;74.80
48454;DHT22;34261;55.678;12.464;2023-04-01T17:24:02;10.30;74.60
48454;DHT22;34261;55.678;12.464;2023-04-01T17:26:40;10.10;75.50
48454;DHT22;34261;55.678;12.464;2023-04-01T17:29:19;10.10;76.50
48454;DHT22;34261;55.678;12.464;2023-04-01T17:32:08;10.10;77.20
48454;DHT22;34261;55.678;12.464;2023-04-01T17:42:22;9.80;78.50
48454;DHT22;34261;55.678;12.464;2023-04-01T17:52:45;9.40;80.40
48454;DHT22;34261;55.678;12.464;2023-04-01T17:58:10;9.20;81.80
48454;DHT22;34261;55.678;12.464;2023-04-01T18:09:22;8.90;79.90
48454;DHT22;34261;55.678;12.464;2023-04-01T18:11:57;8.70;79.50
48454;DHT22;34261;55.678;12.464;2023-04-01T18:14:41;8.70;79.70
48454;DHT22;34261;55.678;12.464;2023-04-01T18:17:23;8.60;80.50
48454;DHT22;34261;55.678;12.464;2023-04-01T18:22:41;8.60;80.90
48454;DHT22;34261;55.678;12.464;2023-04-01T18:28:17;8.50;81.00
48454;DHT22;34261;55.678;12.464;2023-04-01T18:33:45;8.40;82.10
48454;DHT22;34261;55.678;12.464;2023-04-01T18:38:40;8.20;84.20
48454;DHT22;34261;55.678;12.464;2023-04-01T18:41:25;8.10;83.70
48454;DHT22;34261;55.678;12.464;2023-04-01T18:44:16;8.10;84.30
48454;DHT22;34261;55.678;12.464;2023-04-01T18:46:51;8.00;84.90
48454;DHT22;34261;55.678;12.464;2023-04-01T18:49:25;8.00;85.60
48454;DHT22;34261;55.678;12.464;2023-04-01T18:51:54;7.90;86.20
48454;DHT22;34261;55.678;12.464;2023-04-01T18:57:13;7.90;86.60
48454;DHT22;34261;55.678;12.464;2023-04-01T18:59:40;7.80;87.10
48454;DHT22;34261;55.678;12.464;2023-04-01T19:02:14;7.80;87.80
48454;DHT22;34261;55.678;12.464;2023-04-01T19:10:00;7.80;89.00
48454;DHT22;34261;55.678;12.464;2023-04-01T19:12:28;7.70;89.70
48454;DHT22;34261;55.678;12.464;2023-04-01T19:17:47;7.60;89.90
48454;DHT22;34261;55.678;12.464;2023-04-01T19:20:20;7.60;90.30
48454;DHT22;34261;55.678;12.464;2023-04-01T19:25:40;7.40;89.30
48454;DHT22;34261;55.678;12.464;2023-04-01T19:35:57;7.20;89.60
48454;DHT22;34261;55.678;12.464;2023-04-01T19:38:30;7.20;90.60
48454;DHT22;34261;55.678;12.464;2023-04-01T19:41:02;7.20;91.30
48454;DHT22;34261;55.678;12.464;2023-04-01T19:48:57;7.00;90.40
48454;DHT22;34261;55.678;12.464;2023-04-01T19:51:29;7.00;89.70
48454;DHT22;34261;55.678;12.464;2023-04-01T19:54:13;7.00;89.00
48454;DHT22;34261;55.678;12.464;2023-04-01T19:57:30;6.90;88.80
48454;DHT22;34261;55.678;12.464;2023-04-01T20:04:40;6.80;88.70
48454;DHT22;34261;55.678;12.464;2023-04-01T20:14:54;6.60;87.40
48454;DHT22;34261;55.678;12.464;2023-04-01T20:17:24;6.60;87.50
48454;DHT22;34261;55.678;12.464;2023-04-01T20:22:31;6.60;88.00
48454;DHT22;34261;55.678;12.464;2023-04-01T20:25:05;6.60;89.30
48454;DHT22;34261;55.678;12.464;2023-04-01T20:27:31;6.50;89.20
48454;DHT22;34261;55.678;12.464;2023-04-01T20:35:09;6.40;89.90
48454;DHT22;34261;55.678;12.464;2023-04-01T20:37:43;6.40;90.10
48454;DHT22;34261;55.678;12.464;2023-04-01T20:40:26;6.40;90.60
48454;DHT22;34261;55.678;12.464;2023-04-01T20:43:13;6.30;90.90
48454;DHT22;34261;55.678;12.464;2023-04-01T20:45:58;6.30;91.40
48454;DHT22;34261;55.678;12.464;2023-04-01T20:48:31;6.30;91.50
48454;DHT22;34261;55.678;12.464;2023-04-01T20:51:05;6.20;91.20
48454;DHT22;34261;55.678;12.464;2023-04-01T20:53:50;6.20;91.60
48454;DHT22;34261;55.678;12.464;2023-04-01T20:58:58;6.10;91.40
48454;DHT22;34261;55.678;12.464;2023-04-01T21:04:18;6.00;91.70
48454;DHT22;34261;55.678;12.464;2023-04-01T21:06:52;6.00;91.80
48454;DHT22;34261;55.678;12.464;2023-04-01T21:09:36;5.90;91.90
48454;DHT22;34261;55.678;12.464;2023-04-01T21:12:06;5.90;91.90
48454;DHT22;34261;55.678;12.464;2023-04-01T21:17:24;5.80;91.70
48454;DHT22;34261;55.678;12.464;2023-04-01T21:24:50;5.80;91.90
48454;DHT22;34261;55.678;12.464;2023-04-01T21:27:34;5.70;91.40
48454;DHT22;34261;55.678;12.464;2023-04-01T21:30:24;5.60;91.40
48454;DHT22;34261;55.678;12.464;2023-04-01T21:35:35;5.60;91.30
48454;DHT22;34261;55.678;12.464;2023-04-01T21:38:14;5.60;91.30
48454;DHT22;34261;55.678;12.464;2023-04-01T21:43:22;5.50;91.50
48454;DHT22;34261;55.678;12.464;2023-04-01T21:48:35;5.50;91.70
48454;DHT22;34261;55.678;12.464;2023-04-01T22:35:07;5.10;92.50
48454;DHT22;34261;55.678;12.464;2023-04-01T22:45:40;5.00;92.70
48454;DHT22;34261;55.678;12.464;2023-04-01T22:48:10;5.00;92.90
48454;DHT22;34261;55.678;12.464;2023-04-01T22:53:27;4.90;93.50
48454;DHT22;34261;55.678;12.464;2023-04-01T22:55:57;4.90;93.90
48454;DHT22;34261;55.678;12.464;2023-04-01T23:01:01;4.80;94.10
48454;DHT22;34261;55.678;12.464;2023-04-01T23:03:29;4.80;94.00
48454;DHT22;34261;55.678;12.464;2023-04-01T23:05:56;4.70;94.10
48454;DHT22;34261;55.678;12.464;2023-04-01T23:08:30;4.70;94.40
48454;DHT22;34261;55.678;12.464;2023-04-01T23:11:01;4.60;94.30
48454;DHT22;34261;55.678;12.464;2023-04-01T23:13:29;4.60;94.30
48454;DHT22;34261;55.678;12.464;2023-04-01T23:15:59;4.60;94.40
48454;DHT22;34261;55.678;12.464;2023-04-01T23:18:27;4.60;94.70
48454;DHT22;34261;55.678;12.464;2023-04-01T23:21:04;4.60;94.60
48454;DHT22;34261;55.678;12.464;2023-04-01T23:26:14;4.60;95.10
48454;DHT22;34261;55.678;12.464;2023-04-01T23:33:44;4.50;95.20
48454;DHT22;34261;55.678;12.464;2023-04-01T23:36:10;4.50;95.40
48454;DHT22;34261;55.678;12.464;2023-04-01T23:38:38;4.60;95.40
48454;DHT22;34261;55.678;12.464;2023-04-01T23:41:05;4.50;95.50
48454;DHT22;34261;55.678;12.464;2023-04-01T23:43:32;4.50;95.70
48454;DHT22;34261;55.678;12.464;2023-04-01T23:46:00;4.40;96.10
48454;DHT22;34261;55.678;12.464;2023-04-01T23:48:30;4.40;96.10
48454;DHT22;34261;55.678;12.464;2023-04-01T23:56:42;4.30;96.50
48454;DHT22;34261;55.678;12.464;2023-04-01T23:59:19;4.30;96.60
